Observations for MILANO LINATE, Italy (LIML)

LIML 100220Z 20006KT CAVOK 04/01 Q1014 NOSIG
LIML 100150Z VRB02KT CAVOK 05/02 Q1013 NOSIG
LIML 100050Z 26007KT CAVOK 06/02 Q1013 NOSIG
LIML 100020Z 25007KT CAVOK 06/02 Q1013 NOSIG
LIML 092350Z 21005KT CAVOK 05/02 Q1013 NOSIG
LIML 092320Z 24004KT CAVOK 06/02 Q1013 NOSIG
LIML 092250Z 26006KT CAVOK 06/02 Q1013 NOSIG
LIML 092220Z 24003KT 190V300 CAVOK 07/02 Q1012 NOSIG
LIML 092150Z 22005KT CAVOK 06/02 Q1011 NOSIG
LIML 092120Z 27005KT 220V320 CAVOK 10/02 Q1011 NOSIG
LIML 092050Z 30006KT 270V330 CAVOK 10/02 Q1011 NOSIG
LIML 092020Z 25006KT CAVOK 07/03 Q1011 NOSIG
LIML 091950Z 25005KT CAVOK 08/03 Q1010 NOSIG
LIML 091920Z 26003KT CAVOK 08/03 Q1010 NOSIG
LIML 091850Z 26003KT 200V310 CAVOK 08/04 Q1010 NOSIG
LIML 091820Z 26005KT 230V300 CAVOK 08/04 Q1009 NOSIG
LIML 091750Z 26006KT CAVOK 08/04 Q1009 NOSIG
LIML 091720Z 25007KT 210V280 CAVOK 09/04 Q1009 NOSIG
LIML 091650Z 26003KT 9999 FEW025 08/04 Q1009 NOSIG  
LIML 091620Z 24005KT 220V280 9999 FEW025 10/04 Q1009 NOSIG  
LIML 091550Z 24005KT 9999 FEW030 10/04 Q1008 NOSIG  
LIML 091520Z 24005KT 210V270 CAVOK 11/04 Q1008 NOSIG
LIML 091450Z 23007KT 200V260 CAVOK 12/04 Q1008 NOSIG
LIML 091420Z 23005KT CAVOK 13/04 Q1008 NOSIG
LIML 091350Z 27005KT 230V300 CAVOK 13/04 Q1007 NOSIG
LIML 091320Z 27006KT 230V310 CAVOK 13/04 Q1007 NOSIG
LIML 091250Z 26007KT 220V290 9999 FEW020 12/04 Q1008 NOSIG  
LIML 091220Z 26005KT 9999 FEW020 11/04 Q1007 NOSIG  
LIML 091150Z 23005KT 200V270 9999 FEW020 10/05 Q1007 NOSIG  
LIML 091120Z 24004KT 200V270 9999 FEW020 10/04 Q1007 NOSIG  
LIML 091050Z 15003KT 120V200 9999 FEW020 09/05 Q1007 NOSIG  
LIML 091020Z 15003KT 110V210 CAVOK 09/05 Q1007 NOSIG
LIML 090950Z 30003KT 260V010 9999 FEW030 08/04 Q1009 NOSIG  
LIML 090920Z VRB02KT 9999 FEW020 06/03 Q1008 NOSIG  
LIML 090850Z VRB01KT CAVOK 06/04 Q1008 NOSIG
LIML 090820Z 19003KT 9999 FEW010 04/03 Q1007 NOSIG  
LIML 090750Z VRB01KT 9999 MIFG NSC 03/02 Q1007 NOSIG
LIML 090720Z 06003KT 020V100 7000 FEW010 03/02 Q1007 NOSIG  
LIML 090650Z 06006KT 7000 FEW003 03/03 Q1008 NOSIG  
LIML 090620Z 07004KT 040V100 CAVOK 03/02 Q1007 NOSIG
LIML 090550Z 06004KT CAVOK 03/02 Q1008 NOSIG
LIML 090520Z 05003KT CAVOK 01/M00 Q1008 NOSIG   
LIML 090450Z VRB01KT CAVOK 02/01 Q1009 NOSIG
LIML 090420Z 21003KT 190V270 CAVOK 03/02 Q1009 NOSIG
LIML 090350Z VRB02KT CAVOK 03/02 Q1009 NOSIG
LIML 090320Z VRB01KT CAVOK 03/02 Q1011 NOSIG
LIML 090250Z VRB02KT CAVOK 04/02 Q1011 NOSIG
LIML 090220Z 12005KT 090V170 CAVOK 05/03 Q1011 NOSIG
LIML 090150Z 07003KT 010V120 CAVOK 04/01 Q1012 NOSIG